sensor_id;sensor_type;location;lat;lon;timestamp;P1;durP1;ratioP1;P2;durP2;ratioP2
7575;SDS011;3829;50.798;4.358;2023-03-03T00:00:51;33.50;;;15.37;;
7575;SDS011;3829;50.798;4.358;2023-03-03T00:03:18;31.57;;;14.93;;
7575;SDS011;3829;50.798;4.358;2023-03-03T00:05:46;31.00;;;15.43;;
7575;SDS011;3829;50.798;4.358;2023-03-03T00:08:12;31.77;;;14.50;;
7575;SDS011;3829;50.798;4.358;2023-03-03T00:10:38;35.73;;;15.60;;
7575;SDS011;3829;50.798;4.358;2023-03-03T00:13:05;35.17;;;15.13;;
7575;SDS011;3829;50.798;4.358;2023-03-03T00:15:38;39.63;;;17.63;;
7575;SDS011;3829;50.798;4.358;2023-03-03T00:18:05;35.30;;;15.23;;
7575;SDS011;3829;50.798;4.358;2023-03-03T00:20:45;31.57;;;15.10;;
7575;SDS011;3829;50.798;4.358;2023-03-03T00:25:54;35.23;;;17.17;;
7575;SDS011;3829;50.798;4.358;2023-03-03T00:28:22;34.80;;;15.83;;
7575;SDS011;3829;50.798;4.358;2023-03-03T00:30:56;31.60;;;14.97;;
7575;SDS011;3829;50.798;4.358;2023-03-03T00:33:30;34.13;;;15.17;;
7575;SDS011;3829;50.798;4.358;2023-03-03T00:36:05;33.87;;;14.63;;
7575;SDS011;3829;50.798;4.358;2023-03-03T00:38:57;37.27;;;15.53;;
7575;SDS011;3829;50.798;4.358;2023-03-03T00:41:37;33.03;;;14.80;;
7575;SDS011;3829;50.798;4.358;2023-03-03T00:46:55;32.30;;;14.60;;
7575;SDS011;3829;50.798;4.358;2023-03-03T00:49:25;35.67;;;16.07;;
7575;SDS011;3829;50.798;4.358;2023-03-03T00:51:52;33.83;;;14.97;;
7575;SDS011;3829;50.798;4.358;2023-03-03T00:54:18;35.73;;;15.73;;
7575;SDS011;3829;50.798;4.358;2023-03-03T00:56:44;31.43;;;14.70;;
7575;SDS011;3829;50.798;4.358;2023-03-03T00:59:09;33.37;;;13.77;;
7575;SDS011;3829;50.798;4.358;2023-03-03T01:01:35;32.33;;;15.23;;
7575;SDS011;3829;50.798;4.358;2023-03-03T01:04:01;34.10;;;15.47;;
7575;SDS011;3829;50.798;4.358;2023-03-03T01:06:26;34.07;;;15.63;;
7575;SDS011;3829;50.798;4.358;2023-03-03T01:08:52;36.30;;;15.60;;
7575;SDS011;3829;50.798;4.358;2023-03-03T01:11:22;40.10;;;15.57;;
7575;SDS011;3829;50.798;4.358;2023-03-03T01:13:50;33.40;;;14.37;;
7575;SDS011;3829;50.798;4.358;2023-03-03T01:16:17;33.13;;;15.03;;
7575;SDS011;3829;50.798;4.358;2023-03-03T01:18:43;35.70;;;15.90;;
7575;SDS011;3829;50.798;4.358;2023-03-03T01:21:09;38.03;;;15.90;;
7575;SDS011;3829;50.798;4.358;2023-03-03T01:23:36;37.37;;;16.37;;
7575;SDS011;3829;50.798;4.358;2023-03-03T01:26:02;36.13;;;15.97;;
7575;SDS011;3829;50.798;4.358;2023-03-03T01:28:28;34.00;;;15.90;;
7575;SDS011;3829;50.798;4.358;2023-03-03T01:30:54;36.77;;;16.57;;
7575;SDS011;3829;50.798;4.358;2023-03-03T01:33:25;33.73;;;14.77;;
7575;SDS011;3829;50.798;4.358;2023-03-03T01:35:50;33.40;;;14.20;;
7575;SDS011;3829;50.798;4.358;2023-03-03T01:38:16;30.13;;;14.27;;
7575;SDS011;3829;50.798;4.358;2023-03-03T01:40:41;38.33;;;16.80;;
7575;SDS011;3829;50.798;4.358;2023-03-03T01:43:07;34.87;;;16.27;;
7575;SDS011;3829;50.798;4.358;2023-03-03T01:48:27;38.50;;;16.00;;
7575;SDS011;3829;50.798;4.358;2023-03-03T01:51:01;34.57;;;15.90;;
7575;SDS011;3829;50.798;4.358;2023-03-03T01:53:34;39.77;;;15.33;;
7575;SDS011;3829;50.798;4.358;2023-03-03T01:56:04;39.60;;;16.27;;
7575;SDS011;3829;50.798;4.358;2023-03-03T01:58:55;35.40;;;15.93;;
7575;SDS011;3829;50.798;4.358;2023-03-03T02:01:23;37.10;;;15.80;;
7575;SDS011;3829;50.798;4.358;2023-03-03T02:03:55;43.57;;;16.83;;
7575;SDS011;3829;50.798;4.358;2023-03-03T02:06:21;32.37;;;15.40;;
7575;SDS011;3829;50.798;4.358;2023-03-03T02:11:36;35.70;;;15.07;;
7575;SDS011;3829;50.798;4.358;2023-03-03T02:14:04;35.67;;;16.07;;
7575;SDS011;3829;50.798;4.358;2023-03-03T02:16:30;43.07;;;18.97;;
7575;SDS011;3829;50.798;4.358;2023-03-03T02:18:55;40.47;;;18.03;;
7575;SDS011;3829;50.798;4.358;2023-03-03T02:21:22;37.70;;;16.30;;
7575;SDS011;3829;50.798;4.358;2023-03-03T02:26:24;42.17;;;16.77;;
7575;SDS011;3829;50.798;4.358;2023-03-03T02:28:51;39.47;;;17.33;;
7575;SDS011;3829;50.798;4.358;2023-03-03T02:31:19;49.47;;;18.63;;
7575;SDS011;3829;50.798;4.358;2023-03-03T02:33:47;39.27;;;16.37;;
7575;SDS011;3829;50.798;4.358;2023-03-03T02:36:18;45.63;;;19.23;;
7575;SDS011;3829;50.798;4.358;2023-03-03T02:41:54;53.53;;;21.07;;
7575;SDS011;3829;50.798;4.358;2023-03-03T02:44:22;49.87;;;19.37;;
7575;SDS011;3829;50.798;4.358;2023-03-03T02:46:50;44.03;;;18.00;;
7575;SDS011;3829;50.798;4.358;2023-03-03T02:49:18;51.93;;;20.70;;
7575;SDS011;3829;50.798;4.358;2023-03-03T02:51:48;53.20;;;21.80;;
7575;SDS011;3829;50.798;4.358;2023-03-03T02:54:14;44.03;;;17.10;;
7575;SDS011;3829;50.798;4.358;2023-03-03T02:56:41;46.87;;;19.47;;
7575;SDS011;3829;50.798;4.358;2023-03-03T02:59:07;52.40;;;19.80;;
7575;SDS011;3829;50.798;4.358;2023-03-03T03:01:33;44.97;;;20.33;;
7575;SDS011;3829;50.798;4.358;2023-03-03T03:04:06;45.97;;;21.20;;
7575;SDS011;3829;50.798;4.358;2023-03-03T03:06:35;57.10;;;21.40;;
7575;SDS011;3829;50.798;4.358;2023-03-03T03:09:01;49.80;;;19.97;;
7575;SDS011;3829;50.798;4.358;2023-03-03T03:11:28;59.03;;;22.40;;
7575;SDS011;3829;50.798;4.358;2023-03-03T03:13:53;54.37;;;21.93;;
7575;SDS011;3829;50.798;4.358;2023-03-03T03:16:19;64.27;;;24.07;;
7575;SDS011;3829;50.798;4.358;2023-03-03T03:18:44;64.33;;;24.33;;
7575;SDS011;3829;50.798;4.358;2023-03-03T03:21:11;55.33;;;22.43;;
7575;SDS011;3829;50.798;4.358;2023-03-03T03:23:38;52.97;;;22.57;;
7575;SDS011;3829;50.798;4.358;2023-03-03T03:26:04;51.63;;;21.63;;
7575;SDS011;3829;50.798;4.358;2023-03-03T03:28:30;53.57;;;22.20;;
7575;SDS011;3829;50.798;4.358;2023-03-03T03:30:56;57.60;;;22.10;;
7575;SDS011;3829;50.798;4.358;2023-03-03T03:33:22;59.97;;;22.23;;
7575;SDS011;3829;50.798;4.358;2023-03-03T03:35:48;43.23;;;20.30;;
7575;SDS011;3829;50.798;4.358;2023-03-03T03:38:15;49.87;;;20.03;;
7575;SDS011;3829;50.798;4.358;2023-03-03T03:40:41;54.63;;;23.17;;
7575;SDS011;3829;50.798;4.358;2023-03-03T03:43:07;51.37;;;21.73;;
7575;SDS011;3829;50.798;4.358;2023-03-03T03:45:32;52.27;;;20.40;;
7575;SDS011;3829;50.798;4.358;2023-03-03T03:47:58;47.33;;;21.00;;
7575;SDS011;3829;50.798;4.358;2023-03-03T03:50:24;57.40;;;22.80;;
7575;SDS011;3829;50.798;4.358;2023-03-03T03:52:50;61.33;;;24.50;;
7575;SDS011;3829;50.798;4.358;2023-03-03T03:55:15;58.90;;;22.73;;
7575;SDS011;3829;50.798;4.358;2023-03-03T03:57:41;53.40;;;22.07;;
7575;SDS011;3829;50.798;4.358;2023-03-03T04:00:08;55.40;;;21.67;;
7575;SDS011;3829;50.798;4.358;2023-03-03T04:02:34;46.03;;;19.23;;
7575;SDS011;3829;50.798;4.358;2023-03-03T04:05:00;45.03;;;20.03;;
7575;SDS011;3829;50.798;4.358;2023-03-03T04:07:26;51.77;;;19.93;;
7575;SDS011;3829;50.798;4.358;2023-03-03T04:09:52;52.93;;;20.17;;
7575;SDS011;3829;50.798;4.358;2023-03-03T04:12:18;43.93;;;18.33;;
7575;SDS011;3829;50.798;4.358;2023-03-03T04:14:43;55.30;;;21.57;;
7575;SDS011;3829;50.798;4.358;2023-03-03T04:17:27;48.03;;;19.30;;
7575;SDS011;3829;50.798;4.358;2023-03-03T04:19:52;50.90;;;20.93;;
7575;SDS011;3829;50.798;4.358;2023-03-03T04:22:19;58.50;;;21.93;;
7575;SDS011;3829;50.798;4.358;2023-03-03T04:24:45;51.83;;;21.60;;
7575;SDS011;3829;50.798;4.358;2023-03-03T04:27:12;52.73;;;22.03;;
7575;SDS011;3829;50.798;4.358;2023-03-03T04:29:39;53.80;;;20.40;;
7575;SDS011;3829;50.798;4.358;2023-03-03T04:32:05;49.83;;;20.63;;
7575;SDS011;3829;50.798;4.358;2023-03-03T04:34:31;49.27;;;20.77;;
7575;SDS011;3829;50.798;4.358;2023-03-03T04:36:57;49.37;;;19.97;;
7575;SDS011;3829;50.798;4.358;2023-03-03T04:39:22;53.03;;;21.03;;
7575;SDS011;3829;50.798;4.358;2023-03-03T04:41:48;50.73;;;20.77;;
7575;SDS011;3829;50.798;4.358;2023-03-03T04:44:14;53.67;;;20.20;;
7575;SDS011;3829;50.798;4.358;2023-03-03T04:46:39;48.07;;;19.43;;
7575;SDS011;3829;50.798;4.358;2023-03-03T04:49:05;49.07;;;19.60;;
7575;SDS011;3829;50.798;4.358;2023-03-03T04:51:32;44.20;;;19.03;;
7575;SDS011;3829;50.798;4.358;2023-03-03T04:53:58;46.00;;;19.50;;
7575;SDS011;3829;50.798;4.358;2023-03-03T04:56:24;45.63;;;18.93;;
7575;SDS011;3829;50.798;4.358;2023-03-03T04:58:49;47.77;;;19.77;;
7575;SDS011;3829;50.798;4.358;2023-03-03T05:01:15;52.90;;;20.67;;
7575;SDS011;3829;50.798;4.358;2023-03-03T05:03:40;49.10;;;20.03;;
7575;SDS011;3829;50.798;4.358;2023-03-03T05:06:06;47.63;;;18.70;;
7575;SDS011;3829;50.798;4.358;2023-03-03T05:08:32;50.17;;;18.80;;
7575;SDS011;3829;50.798;4.358;2023-03-03T05:10:57;52.20;;;20.10;;
7575;SDS011;3829;50.798;4.358;2023-03-03T05:13:26;56.93;;;20.73;;
7575;SDS011;3829;50.798;4.358;2023-03-03T05:15:53;50.73;;;20.37;;
7575;SDS011;3829;50.798;4.358;2023-03-03T05:18:20;53.37;;;20.33;;
7575;SDS011;3829;50.798;4.358;2023-03-03T05:20:48;47.63;;;20.07;;
7575;SDS011;3829;50.798;4.358;2023-03-03T05:23:14;51.40;;;20.63;;
7575;SDS011;3829;50.798;4.358;2023-03-03T05:25:40;52.47;;;19.17;;
7575;SDS011;3829;50.798;4.358;2023-03-03T05:28:06;57.90;;;21.20;;
7575;SDS011;3829;50.798;4.358;2023-03-03T05:30:32;57.97;;;21.57;;
7575;SDS011;3829;50.798;4.358;2023-03-03T05:32:58;51.60;;;20.97;;
7575;SDS011;3829;50.798;4.358;2023-03-03T05:35:24;55.23;;;20.37;;
7575;SDS011;3829;50.798;4.358;2023-03-03T05:37:50;48.87;;;18.90;;
7575;SDS011;3829;50.798;4.358;2023-03-03T05:40:16;46.23;;;19.03;;
7575;SDS011;3829;50.798;4.358;2023-03-03T05:42:42;56.87;;;19.87;;
7575;SDS011;3829;50.798;4.358;2023-03-03T05:45:08;45.60;;;18.70;;
7575;SDS011;3829;50.798;4.358;2023-03-03T05:47:34;51.20;;;20.87;;
7575;SDS011;3829;50.798;4.358;2023-03-03T05:50:00;55.17;;;19.93;;
7575;SDS011;3829;50.798;4.358;2023-03-03T05:52:25;53.27;;;19.47;;
7575;SDS011;3829;50.798;4.358;2023-03-03T05:54:51;45.97;;;19.30;;
7575;SDS011;3829;50.798;4.358;2023-03-03T05:57:17;46.57;;;17.77;;
7575;SDS011;3829;50.798;4.358;2023-03-03T05:59:42;41.27;;;17.53;;
7575;SDS011;3829;50.798;4.358;2023-03-03T06:02:08;39.03;;;15.57;;
7575;SDS011;3829;50.798;4.358;2023-03-03T06:04:33;44.17;;;18.40;;
7575;SDS011;3829;50.798;4.358;2023-03-03T06:06:59;41.30;;;17.93;;
7575;SDS011;3829;50.798;4.358;2023-03-03T06:09:24;36.37;;;16.37;;
7575;SDS011;3829;50.798;4.358;2023-03-03T06:11:50;44.37;;;17.93;;
7575;SDS011;3829;50.798;4.358;2023-03-03T06:14:17;46.33;;;19.40;;
7575;SDS011;3829;50.798;4.358;2023-03-03T06:16:46;41.00;;;18.63;;
7575;SDS011;3829;50.798;4.358;2023-03-03T06:19:12;42.50;;;16.90;;
7575;SDS011;3829;50.798;4.358;2023-03-03T06:21:39;39.77;;;16.73;;
7575;SDS011;3829;50.798;4.358;2023-03-03T06:24:05;36.27;;;16.07;;
7575;SDS011;3829;50.798;4.358;2023-03-03T06:26:31;48.50;;;18.67;;
7575;SDS011;3829;50.798;4.358;2023-03-03T06:28:57;45.87;;;17.50;;
7575;SDS011;3829;50.798;4.358;2023-03-03T06:31:23;46.83;;;18.10;;
7575;SDS011;3829;50.798;4.358;2023-03-03T06:33:50;32.40;;;14.00;;
7575;SDS011;3829;50.798;4.358;2023-03-03T06:36:16;42.57;;;18.50;;
7575;SDS011;3829;50.798;4.358;2023-03-03T06:38:42;34.63;;;16.67;;
7575;SDS011;3829;50.798;4.358;2023-03-03T06:41:08;32.23;;;13.43;;
7575;SDS011;3829;50.798;4.358;2023-03-03T06:43:34;34.33;;;14.73;;
7575;SDS011;3829;50.798;4.358;2023-03-03T06:46:01;46.57;;;18.20;;
7575;SDS011;3829;50.798;4.358;2023-03-03T06:48:28;40.23;;;18.53;;
7575;SDS011;3829;50.798;4.358;2023-03-03T06:50:55;44.67;;;18.40;;
7575;SDS011;3829;50.798;4.358;2023-03-03T06:53:24;37.87;;;18.07;;
7575;SDS011;3829;50.798;4.358;2023-03-03T06:55:50;44.93;;;19.07;;
7575;SDS011;3829;50.798;4.358;2023-03-03T06:58:17;37.20;;;15.67;;
7575;SDS011;3829;50.798;4.358;2023-03-03T07:00:52;44.70;;;18.10;;
7575;SDS011;3829;50.798;4.358;2023-03-03T07:03:22;31.93;;;13.30;;
7575;SDS011;3829;50.798;4.358;2023-03-03T07:05:56;39.53;;;17.50;;
7575;SDS011;3829;50.798;4.358;2023-03-03T07:08:22;42.90;;;16.30;;
7575;SDS011;3829;50.798;4.358;2023-03-03T07:10:50;43.10;;;16.33;;
7575;SDS011;3829;50.798;4.358;2023-03-03T07:13:18;37.80;;;17.10;;
7575;SDS011;3829;50.798;4.358;2023-03-03T07:15:43;35.70;;;16.83;;
7575;SDS011;3829;50.798;4.358;2023-03-03T07:18:20;38.57;;;19.20;;
7575;SDS011;3829;50.798;4.358;2023-03-03T07:23:45;42.37;;;16.30;;
7575;SDS011;3829;50.798;4.358;2023-03-03T07:26:13;38.77;;;17.43;;
7575;SDS011;3829;50.798;4.358;2023-03-03T07:28:43;42.13;;;18.10;;
7575;SDS011;3829;50.798;4.358;2023-03-03T07:31:19;39.60;;;17.17;;
7575;SDS011;3829;50.798;4.358;2023-03-03T07:33:50;39.43;;;17.53;;
7575;SDS011;3829;50.798;4.358;2023-03-03T07:39:25;39.87;;;17.20;;
7575;SDS011;3829;50.798;4.358;2023-03-03T07:42:19;46.87;;;18.70;;
7575;SDS011;3829;50.798;4.358;2023-03-03T07:44:46;38.07;;;16.30;;
7575;SDS011;3829;50.798;4.358;2023-03-03T07:49:43;31.67;;;12.03;;
7575;SDS011;3829;50.798;4.358;2023-03-03T07:52:29;35.53;;;16.17;;
7575;SDS011;3829;50.798;4.358;2023-03-03T07:55:19;34.53;;;15.53;;
7575;SDS011;3829;50.798;4.358;2023-03-03T08:03:04;42.00;;;17.37;;
7575;SDS011;3829;50.798;4.358;2023-03-03T08:10:52;47.43;;;17.20;;
7575;SDS011;3829;50.798;4.358;2023-03-03T08:15:48;44.10;;;15.93;;
7575;SDS011;3829;50.798;4.358;2023-03-03T08:18:48;42.23;;;18.03;;
7575;SDS011;3829;50.798;4.358;2023-03-03T08:21:15;39.80;;;16.97;;
7575;SDS011;3829;50.798;4.358;2023-03-03T08:23:42;38.40;;;15.73;;
7575;SDS011;3829;50.798;4.358;2023-03-03T08:26:09;40.73;;;16.87;;
7575;SDS011;3829;50.798;4.358;2023-03-03T08:28:36;44.07;;;17.60;;
7575;SDS011;3829;50.798;4.358;2023-03-03T08:31:02;42.37;;;16.47;;
7575;SDS011;3829;50.798;4.358;2023-03-03T08:33:28;42.07;;;17.90;;
7575;SDS011;3829;50.798;4.358;2023-03-03T08:35:53;45.10;;;18.10;;
7575;SDS011;3829;50.798;4.358;2023-03-03T08:38:19;44.33;;;17.73;;
7575;SDS011;3829;50.798;4.358;2023-03-03T08:40:46;38.83;;;16.80;;
7575;SDS011;3829;50.798;4.358;2023-03-03T08:43:13;37.80;;;15.93;;
7575;SDS011;3829;50.798;4.358;2023-03-03T08:45:44;41.93;;;16.70;;
7575;SDS011;3829;50.798;4.358;2023-03-03T08:48:11;39.50;;;17.43;;
7575;SDS011;3829;50.798;4.358;2023-03-03T08:50:36;39.20;;;16.40;;
7575;SDS011;3829;50.798;4.358;2023-03-03T08:53:02;34.53;;;15.70;;
7575;SDS011;3829;50.798;4.358;2023-03-03T08:55:28;42.20;;;16.20;;
7575;SDS011;3829;50.798;4.358;2023-03-03T08:57:54;36.33;;;14.57;;
7575;SDS011;3829;50.798;4.358;2023-03-03T09:00:20;34.30;;;15.43;;
7575;SDS011;3829;50.798;4.358;2023-03-03T09:02:47;34.33;;;14.80;;
7575;SDS011;3829;50.798;4.358;2023-03-03T09:05:14;36.40;;;14.67;;
7575;SDS011;3829;50.798;4.358;2023-03-03T09:07:41;30.87;;;14.13;;
7575;SDS011;3829;50.798;4.358;2023-03-03T09:10:09;36.43;;;14.10;;
7575;SDS011;3829;50.798;4.358;2023-03-03T09:12:38;35.73;;;16.17;;
7575;SDS011;3829;50.798;4.358;2023-03-03T09:15:17;40.67;;;16.67;;
7575;SDS011;3829;50.798;4.358;2023-03-03T09:17:51;38.20;;;15.93;;
7575;SDS011;3829;50.798;4.358;2023-03-03T09:20:22;26.50;;;11.83;;
7575;SDS011;3829;50.798;4.358;2023-03-03T09:22:54;26.30;;;10.80;;
7575;SDS011;3829;50.798;4.358;2023-03-03T09:25:33;36.97;;;13.60;;
7575;SDS011;3829;50.798;4.358;2023-03-03T09:28:01;28.33;;;11.77;;
7575;SDS011;3829;50.798;4.358;2023-03-03T09:30:32;30.30;;;13.17;;
7575;SDS011;3829;50.798;4.358;2023-03-03T09:33:46;29.77;;;12.37;;
7575;SDS011;3829;50.798;4.358;2023-03-03T09:38:43;26.97;;;11.83;;
7575;SDS011;3829;50.798;4.358;2023-03-03T09:46:47;26.43;;;11.47;;
7575;SDS011;3829;50.798;4.358;2023-03-03T09:52:42;32.53;;;13.20;;
7575;SDS011;3829;50.798;4.358;2023-03-03T09:58:35;25.33;;;12.30;;
7575;SDS011;3829;50.798;4.358;2023-03-03T10:04:21;25.87;;;10.93;;
7575;SDS011;3829;50.798;4.358;2023-03-03T10:06:55;27.80;;;11.87;;
7575;SDS011;3829;50.798;4.358;2023-03-03T10:09:35;29.03;;;12.00;;
7575;SDS011;3829;50.798;4.358;2023-03-03T10:17:39;33.07;;;12.60;;
7575;SDS011;3829;50.798;4.358;2023-03-03T10:23:18;27.77;;;11.53;;
7575;SDS011;3829;50.798;4.358;2023-03-03T10:31:36;27.00;;;11.90;;
7575;SDS011;3829;50.798;4.358;2023-03-03T10:37:22;24.90;;;10.43;;
7575;SDS011;3829;50.798;4.358;2023-03-03T10:48:52;32.30;;;13.10;;
7575;SDS011;3829;50.798;4.358;2023-03-03T10:50:57;27.90;;;12.23;;
7575;SDS011;3829;50.798;4.358;2023-03-03T11:12:05;26.83;;;12.10;;
7575;SDS011;3829;50.798;4.358;2023-03-03T11:14:53;30.00;;;12.93;;
7575;SDS011;3829;50.798;4.358;2023-03-03T11:17:38;28.67;;;11.60;;
7575;SDS011;3829;50.798;4.358;2023-03-03T11:20:27;26.93;;;11.03;;
7575;SDS011;3829;50.798;4.358;2023-03-03T11:28:40;27.93;;;12.63;;
7575;SDS011;3829;50.798;4.358;2023-03-03T11:36:48;24.73;;;10.33;;
7575;SDS011;3829;50.798;4.358;2023-03-03T11:39:21;23.27;;;9.97;;
7575;SDS011;3829;50.798;4.358;2023-03-03T11:44:37;30.30;;;11.33;;
7575;SDS011;3829;50.798;4.358;2023-03-03T11:52:04;26.20;;;12.43;;
7575;SDS011;3829;50.798;4.358;2023-03-03T11:54:56;33.83;;;11.90;;
7575;SDS011;3829;50.798;4.358;2023-03-03T11:57:30;28.37;;;12.23;;
7575;SDS011;3829;50.798;4.358;2023-03-03T12:03:24;30.10;;;12.07;;
7575;SDS011;3829;50.798;4.358;2023-03-03T12:11:33;24.20;;;11.50;;
7575;SDS011;3829;50.798;4.358;2023-03-03T12:17:10;13.30;;;6.27;;
7575;SDS011;3829;50.798;4.358;2023-03-03T12:20:02;20.97;;;9.43;;
7575;SDS011;3829;50.798;4.358;2023-03-03T12:22:54;26.80;;;11.40;;
7575;SDS011;3829;50.798;4.358;2023-03-03T12:25:42;22.07;;;10.00;;
7575;SDS011;3829;50.798;4.358;2023-03-03T12:28:41;27.13;;;11.37;;
7575;SDS011;3829;50.798;4.358;2023-03-03T12:31:24;26.13;;;11.10;;
7575;SDS011;3829;50.798;4.358;2023-03-03T12:36:49;26.90;;;10.97;;
7575;SDS011;3829;50.798;4.358;2023-03-03T12:39:40;21.13;;;10.57;;
7575;SDS011;3829;50.798;4.358;2023-03-03T12:42:22;26.03;;;11.40;;
7575;SDS011;3829;50.798;4.358;2023-03-03T12:47:45;23.10;;;11.30;;
7575;SDS011;3829;50.798;4.358;2023-03-03T12:50:21;25.20;;;11.77;;
7575;SDS011;3829;50.798;4.358;2023-03-03T13:15:52;24.70;;;11.43;;
7575;SDS011;3829;50.798;4.358;2023-03-03T13:26:42;22.97;;;11.37;;
7575;SDS011;3829;50.798;4.358;2023-03-03T13:32:08;22.63;;;10.27;;
7575;SDS011;3829;50.798;4.358;2023-03-03T13:34:54;23.87;;;10.90;;
7575;SDS011;3829;50.798;4.358;2023-03-03T13:37:54;24.67;;;10.53;;
7575;SDS011;3829;50.798;4.358;2023-03-03T13:40:23;21.37;;;10.27;;
7575;SDS011;3829;50.798;4.358;2023-03-03T13:48:43;21.83;;;10.27;;
7575;SDS011;3829;50.798;4.358;2023-03-03T13:51:30;23.93;;;10.57;;
7575;SDS011;3829;50.798;4.358;2023-03-03T13:57:06;20.70;;;9.40;;
7575;SDS011;3829;50.798;4.358;2023-03-03T14:05:13;21.23;;;9.97;;
7575;SDS011;3829;50.798;4.358;2023-03-03T14:07:51;19.43;;;10.13;;
7575;SDS011;3829;50.798;4.358;2023-03-03T14:10:25;20.80;;;10.83;;
7575;SDS011;3829;50.798;4.358;2023-03-03T14:12:57;21.20;;;9.40;;
7575;SDS011;3829;50.798;4.358;2023-03-03T14:15:46;20.60;;;10.00;;
7575;SDS011;3829;50.798;4.358;2023-03-03T14:18:23;24.23;;;9.43;;
7575;SDS011;3829;50.798;4.358;2023-03-03T14:21:08;19.63;;;9.77;;
7575;SDS011;3829;50.798;4.358;2023-03-03T14:23:45;20.23;;;9.33;;
7575;SDS011;3829;50.798;4.358;2023-03-03T14:26:44;23.33;;;10.30;;
7575;SDS011;3829;50.798;4.358;2023-03-03T14:29:19;21.17;;;10.33;;
7575;SDS011;3829;50.798;4.358;2023-03-03T14:31:45;20.13;;;8.97;;
7575;SDS011;3829;50.798;4.358;2023-03-03T14:34:24;18.23;;;8.90;;
7575;SDS011;3829;50.798;4.358;2023-03-03T14:37:22;18.00;;;9.03;;
7575;SDS011;3829;50.798;4.358;2023-03-03T14:43:02;23.20;;;9.17;;
7575;SDS011;3829;50.798;4.358;2023-03-03T14:48:26;18.07;;;9.27;;
7575;SDS011;3829;50.798;4.358;2023-03-03T14:50:52;16.43;;;9.00;;
7575;SDS011;3829;50.798;4.358;2023-03-03T14:53:29;16.53;;;8.40;;
7575;SDS011;3829;50.798;4.358;2023-03-03T14:58:45;16.50;;;7.63;;
7575;SDS011;3829;50.798;4.358;2023-03-03T15:01:16;14.67;;;8.17;;
7575;SDS011;3829;50.798;4.358;2023-03-03T15:03:59;14.97;;;8.00;;
7575;SDS011;3829;50.798;4.358;2023-03-03T15:06:52;14.43;;;7.53;;
7575;SDS011;3829;50.798;4.358;2023-03-03T15:17:35;16.97;;;8.20;;
7575;SDS011;3829;50.798;4.358;2023-03-03T15:33:00;12.53;;;7.17;;
7575;SDS011;3829;50.798;4.358;2023-03-03T15:35:56;16.80;;;7.23;;
7575;SDS011;3829;50.798;4.358;2023-03-03T15:39:08;15.83;;;6.23;;
7575;SDS011;3829;50.798;4.358;2023-03-03T15:41:44;13.10;;;7.17;;
7575;SDS011;3829;50.798;4.358;2023-03-03T15:44:20;16.20;;;7.57;;
7575;SDS011;3829;50.798;4.358;2023-03-03T15:49:51;16.83;;;7.87;;
7575;SDS011;3829;50.798;4.358;2023-03-03T16:00:32;16.30;;;7.43;;
7575;SDS011;3829;50.798;4.358;2023-03-03T16:03:20;17.30;;;6.77;;
7575;SDS011;3829;50.798;4.358;2023-03-03T16:06:14;12.87;;;7.43;;
7575;SDS011;3829;50.798;4.358;2023-03-03T16:08:46;15.60;;;6.83;;
7575;SDS011;3829;50.798;4.358;2023-03-03T16:11:33;12.47;;;6.53;;
7575;SDS011;3829;50.798;4.358;2023-03-03T16:14:35;17.37;;;7.90;;
7575;SDS011;3829;50.798;4.358;2023-03-03T16:19:41;11.63;;;6.10;;
7575;SDS011;3829;50.798;4.358;2023-03-03T16:22:33;12.23;;;7.10;;
7575;SDS011;3829;50.798;4.358;2023-03-03T16:25:27;13.30;;;6.70;;
7575;SDS011;3829;50.798;4.358;2023-03-03T16:39:00;10.77;;;5.87;;
7575;SDS011;3829;50.798;4.358;2023-03-03T16:41:50;12.77;;;6.63;;
7575;SDS011;3829;50.798;4.358;2023-03-03T16:56:13;15.17;;;6.17;;
7575;SDS011;3829;50.798;4.358;2023-03-03T16:58:58;9.90;;;5.77;;
7575;SDS011;3829;50.798;4.358;2023-03-03T17:04:29;12.57;;;5.90;;
7575;SDS011;3829;50.798;4.358;2023-03-03T17:10:17;12.07;;;6.30;;
7575;SDS011;3829;50.798;4.358;2023-03-03T17:20:36;13.50;;;6.60;;
7575;SDS011;3829;50.798;4.358;2023-03-03T17:23:14;12.63;;;7.00;;
7575;SDS011;3829;50.798;4.358;2023-03-03T17:28:48;10.70;;;6.17;;
7575;SDS011;3829;50.798;4.358;2023-03-03T17:31:38;10.17;;;5.97;;
7575;SDS011;3829;50.798;4.358;2023-03-03T17:34:40;11.50;;;6.27;;
7575;SDS011;3829;50.798;4.358;2023-03-03T17:40:18;13.97;;;6.50;;
7575;SDS011;3829;50.798;4.358;2023-03-03T17:46:00;18.53;;;7.97;;
7575;SDS011;3829;50.798;4.358;2023-03-03T17:51:39;10.10;;;5.80;;
7575;SDS011;3829;50.798;4.358;2023-03-03T17:54:32;10.87;;;6.30;;
7575;SDS011;3829;50.798;4.358;2023-03-03T17:57:34;10.50;;;5.90;;
7575;SDS011;3829;50.798;4.358;2023-03-03T18:03:01;12.53;;;7.10;;
7575;SDS011;3829;50.798;4.358;2023-03-03T18:08:24;14.50;;;7.43;;
7575;SDS011;3829;50.798;4.358;2023-03-03T18:22:11;16.03;;;7.07;;
7575;SDS011;3829;50.798;4.358;2023-03-03T18:37:51;13.93;;;7.20;;
7575;SDS011;3829;50.798;4.358;2023-03-03T18:42:42;13.27;;;7.03;;
7575;SDS011;3829;50.798;4.358;2023-03-03T18:53:12;14.30;;;7.03;;
7575;SDS011;3829;50.798;4.358;2023-03-03T19:00:54;13.40;;;7.33;;
7575;SDS011;3829;50.798;4.358;2023-03-03T19:03:24;13.97;;;7.30;;
7575;SDS011;3829;50.798;4.358;2023-03-03T19:05:57;14.20;;;6.47;;
7575;SDS011;3829;50.798;4.358;2023-03-03T19:08:25;9.90;;;6.13;;
7575;SDS011;3829;50.798;4.358;2023-03-03T19:10:56;16.60;;;6.60;;
7575;SDS011;3829;50.798;4.358;2023-03-03T19:13:39;11.53;;;6.30;;
7575;SDS011;3829;50.798;4.358;2023-03-03T19:16:08;11.87;;;6.90;;
7575;SDS011;3829;50.798;4.358;2023-03-03T19:23:46;10.47;;;5.97;;
7575;SDS011;3829;50.798;4.358;2023-03-03T19:28:51;7.97;;;5.73;;
7575;SDS011;3829;50.798;4.358;2023-03-03T19:31:32;9.97;;;5.93;;
7575;SDS011;3829;50.798;4.358;2023-03-03T19:34:23;8.53;;;5.50;;
7575;SDS011;3829;50.798;4.358;2023-03-03T19:43:16;13.33;;;4.70;;
7575;SDS011;3829;50.798;4.358;2023-03-03T19:45:52;10.77;;;4.73;;
7575;SDS011;3829;50.798;4.358;2023-03-03T19:50:52;10.13;;;5.30;;
7575;SDS011;3829;50.798;4.358;2023-03-03T20:01:27;7.47;;;5.00;;
7575;SDS011;3829;50.798;4.358;2023-03-03T20:04:16;7.07;;;4.57;;
7575;SDS011;3829;50.798;4.358;2023-03-03T20:07:06;6.97;;;4.30;;
7575;SDS011;3829;50.798;4.358;2023-03-03T20:15:06;6.33;;;4.30;;
7575;SDS011;3829;50.798;4.358;2023-03-03T20:17:51;6.33;;;4.20;;
7575;SDS011;3829;50.798;4.358;2023-03-03T20:25:40;8.00;;;4.80;;
7575;SDS011;3829;50.798;4.358;2023-03-03T20:33:47;9.40;;;6.10;;
7575;SDS011;3829;50.798;4.358;2023-03-03T20:42:12;8.70;;;6.33;;
7575;SDS011;3829;50.798;4.358;2023-03-03T20:53:07;12.83;;;7.50;;
7575;SDS011;3829;50.798;4.358;2023-03-03T20:55:43;13.80;;;7.70;;
7575;SDS011;3829;50.798;4.358;2023-03-03T21:02:16;14.63;;;8.67;;
7575;SDS011;3829;50.798;4.358;2023-03-03T21:04:36;12.83;;;8.37;;
7575;SDS011;3829;50.798;4.358;2023-03-03T21:07:03;26.10;;;10.47;;
7575;SDS011;3829;50.798;4.358;2023-03-03T21:09:31;14.67;;;10.13;;
7575;SDS011;3829;50.798;4.358;2023-03-03T21:11:59;13.57;;;9.77;;
7575;SDS011;3829;50.798;4.358;2023-03-03T21:14:27;13.20;;;9.63;;
7575;SDS011;3829;50.798;4.358;2023-03-03T21:16:56;15.27;;;10.10;;
7575;SDS011;3829;50.798;4.358;2023-03-03T21:19:30;14.70;;;9.77;;
7575;SDS011;3829;50.798;4.358;2023-03-03T21:21:57;15.80;;;9.90;;
7575;SDS011;3829;50.798;4.358;2023-03-03T21:24:44;16.40;;;10.13;;
7575;SDS011;3829;50.798;4.358;2023-03-03T21:27:27;16.43;;;10.03;;
7575;SDS011;3829;50.798;4.358;2023-03-03T21:30:27;12.60;;;9.50;;
7575;SDS011;3829;50.798;4.358;2023-03-03T21:32:47;14.67;;;8.93;;
7575;SDS011;3829;50.798;4.358;2023-03-03T21:35:14;15.27;;;9.80;;
7575;SDS011;3829;50.798;4.358;2023-03-03T21:37:43;19.90;;;11.30;;
7575;SDS011;3829;50.798;4.358;2023-03-03T21:40:12;16.40;;;10.13;;
7575;SDS011;3829;50.798;4.358;2023-03-03T21:42:40;18.40;;;10.47;;